Terminal Aerodrome Forecast
Issued by NWS Des Moines, IA

Home | Current Version | Previous Version | Text Only | Print | Product List | Glossary On
Versions: 1 2 3 4 5 6 7 8 9 10 11 12 13 14 15 16 17
000
FTUS43 KDMX 271132
TAFALO
TAF
KALO 271132Z 2712/2812 VRB03KT 6SM BR VCSH OVC007
     FM271600 04004KT P6SM OVC015
     FM271800 VRB03KT P6SM BKN025
     FM272000 VRB03KT P6SM BKN050
     FM280000 VRB03KT P6SM SCT100=

USA.gov is the U.S. government's official web portal to all federal, state and local government web resources and services.